In Rescue
 
Open Full Screen Window  High Contrast Mode
Wind Gusting 14 knots
08
November 10, 2022 12:12 AM CST
Present Weather: Thunderstorms with Rain
Weather Information
Wind Direction
  320 °
Wind Speed
  08 kt (9 mph)
Wind Gust
  14 kt (16 mph)
Altimeter
29.84 in
Visibility
4 SM
Temperature
06° C
43° F
Dewpoint
06° C
43° F
Humidity
100%
1hr Rain Fall
00.00 in.
24hr Rain Fall
00.49 in.
Sky Condition
Overcast @ 1,200 ft
Broken @ 600 ft
IFR

METAR KLXL 100612Z AUTO 32008G14KT 4SM TSRA BKN006 OVC012 06/06 A2984 RMK AO2 LTG DSNT ALQ

FAA Disclaimer: The data displayed is for advisory purposes only and is not to be used for flight planning or operations.